Time;durP1;ratioP1;P1;durP2;ratioP2;P2;SDS_P1;SDS_P2;PMS_P1;PMS_P2;Temp;Humidity;BMP_temperature;BMP_pressure;BME280_temperature;BME280_humidity;BME280_pressure;Samples;Min_cycle;Max_cycle;Signal;HPM_P1;HPM_P2
2022/04/02 00:01:17;;;;;;;;;;;;;;;9.51;48.51;97715.28;4484960;31;34769;-64
2022/04/02 00:03:47;;;;;;;;;;;;;;;9.40;47.48;97705.69;4491009;31;33022;-65
2022/04/02 00:06:16;;;;;;;;;;;;;;;9.31;48.13;97710.16;4492110;31;34160;-62
2022/04/02 00:08:44;;;;;;;;;;;;;;;9.22;48.47;97715.56;4490967;31;33525;-63
2022/04/02 00:11:12;;;;;;;;;;;;;;;8.72;48.97;97714.31;4493054;31;32857;-63
2022/04/02 00:13:40;;;;;;;;;;;;;;;9.01;48.65;97718.56;4487256;31;32890;-67
2022/04/02 00:16:09;;;;;;;;;;;;;;;8.97;50.50;97722.53;4483492;31;32883;-66
2022/04/02 00:18:39;;;;;;;;;;;;;;;8.82;48.12;97723.06;4482329;31;32318;-64
2022/04/02 00:21:07;;;;;;;;;;;;;;;8.37;49.29;97737.25;4487231;31;33013;-67
2022/04/02 00:23:40;;;;;;;;;;;;;;;8.70;48.61;97731.44;4488872;31;32974;-65
2022/04/02 00:26:09;;;;;;;;;;;;;;;8.57;49.18;97716.69;4481046;32;34157;-65
2022/04/02 00:28:39;;;;;;;;;;;;;;;8.29;49.81;97701.69;4485028;31;31988;-65
2022/04/02 00:31:09;;;;;;;;;;;;;;;8.20;50.08;97698.09;4487634;31;32954;-66
2022/04/02 00:33:38;;;;;;;;;;;;;;;8.13;49.93;97689.03;4484367;32;33397;-64
2022/04/02 00:36:06;;;;;;;;;;;;;;;8.10;50.85;97689.31;4489523;31;33081;-65
2022/04/02 00:38:34;;;;;;;;;;;;;;;8.21;51.49;97688.28;4483013;31;32299;-67
2022/04/02 00:41:02;;;;;;;;;;;;;;;6.71;55.17;97690.03;4490472;31;32887;-67
2022/04/02 00:43:35;;;;;;;;;;;;;;;7.55;52.49;97684.00;4485696;31;33006;-64
2022/04/02 00:46:07;;;;;;;;;;;;;;;7.84;51.88;97678.53;4490949;31;33019;-64
2022/04/02 00:48:35;;;;;;;;;;;;;;;8.24;51.16;97678.13;4489819;31;33503;-66
2022/04/02 00:51:08;;;;;;;;;;;;;;;7.61;52.64;97686.91;4501835;31;34098;-65
2022/04/02 00:53:38;;;;;;;;;;;;;;;8.28;50.40;97681.34;4477569;31;35470;-66
2022/04/02 00:56:06;;;;;;;;;;;;;;;8.50;49.92;97688.09;4496519;31;32860;-65
2022/04/02 00:58:35;;;;;;;;;;;;;;;7.96;52.79;97690.66;4484439;31;33620;-65
2022/04/02 01:01:03;;;;;;;;;;;;;;;8.30;51.53;97685.53;4487552;31;32541;-66
2022/04/02 01:03:33;;;;;;;;;;;;;;;8.70;49.43;97689.66;4485411;31;33049;-65
2022/04/02 01:06:03;;;;;;;;;;;;;;;8.87;48.14;97685.28;4487990;31;33138;-68
2022/04/02 01:08:35;;;;;;;;;;;;;;;9.11;48.93;97681.94;4485316;31;33617;-65
2022/04/02 01:11:03;;;;;;;;;;;;;;;8.94;47.91;97688.16;4489608;31;34229;-65
2022/04/02 01:13:32;;;;;;;;;;;;;;;8.80;49.09;97692.22;4495708;31;34075;-65
2022/04/02 01:16:02;;;;;;;;;;;;;;;8.85;47.22;97703.25;4486390;31;35031;-64
2022/04/02 01:18:30;;;;;;;;;;;;;;;8.53;48.58;97701.97;4476585;32;34250;-66
2022/04/02 01:20:59;;;;;;;;;;;;;;;8.17;50.08;97698.41;4486414;31;34150;-66
2022/04/02 01:23:31;;;;;;;;;;;;;;;8.37;49.16;97713.25;4485819;31;33317;-67
2022/04/02 01:26:01;;;;;;;;;;;;;;;8.20;50.30;97714.09;4491035;31;34580;-66
2022/04/02 01:28:40;;;;;;;;;;;;;;;7.78;51.67;97724.41;4487485;31;31582;-67
2022/04/02 01:31:10;;;;;;;;;;;;;;;7.59;50.79;97722.63;4498385;31;34154;-67
2022/04/02 01:33:40;;;;;;;;;;;;;;;7.60;52.08;97725.13;4499247;31;33110;-66
2022/04/02 01:36:08;;;;;;;;;;;;;;;8.01;49.35;97727.50;4485080;31;35258;-65
2022/04/02 01:38:40;;;;;;;;;;;;;;;7.73;51.34;97726.66;4486762;31;32583;-66
2022/04/02 01:41:10;;;;;;;;;;;;;;;8.13;48.76;97731.66;4485544;31;33191;-65
2022/04/02 01:43:42;;;;;;;;;;;;;;;8.14;49.45;97728.00;4488568;31;34331;-64
2022/04/02 01:46:10;;;;;;;;;;;;;;;7.84;49.54;97727.31;4491092;31;34932;-65
2022/04/02 01:48:40;;;;;;;;;;;;;;;7.90;50.68;97731.22;4492320;31;32232;-63
2022/04/02 01:51:08;;;;;;;;;;;;;;;8.37;48.79;97728.44;4498081;31;35497;-65
2022/04/02 01:53:36;;;;;;;;;;;;;;;8.45;48.13;97738.37;4496009;31;35540;-66
2022/04/02 01:56:07;;;;;;;;;;;;;;;7.97;50.07;97745.63;4498657;31;32782;-65
2022/04/02 01:58:37;;;;;;;;;;;;;;;8.71;47.91;97742.00;4486487;31;33502;-66
2022/04/02 02:01:06;;;;;;;;;;;;;;;8.78;47.21;97745.72;4486061;31;33260;-65
2022/04/02 02:03:36;;;;;;;;;;;;;;;8.80;47.96;97746.41;4487326;31;34291;-67
2022/04/02 02:06:04;;;;;;;;;;;;;;;9.03;46.40;97745.94;4485405;31;34630;-65
2022/04/02 02:08:34;;;;;;;;;;;;;;;8.50;49.18;97741.41;4498387;31;32023;-67
2022/04/02 02:11:03;;;;;;;;;;;;;;;8.15;50.96;97751.84;4486548;31;34454;-67
2022/04/02 02:13:33;;;;;;;;;;;;;;;8.71;47.53;97754.50;4489559;31;32954;-65
2022/04/02 02:16:03;;;;;;;;;;;;;;;9.16;46.51;97769.56;4490828;31;33732;-67
2022/04/02 02:18:34;;;;;;;;;;;;;;;8.93;48.70;97763.88;4486716;31;33454;-66
2022/04/02 02:21:03;;;;;;;;;;;;;;;9.01;46.94;97762.09;4485948;31;33754;-67
2022/04/02 02:23:32;;;;;;;;;;;;;;;9.13;47.65;97768.03;4484646;31;33262;-67
2022/04/02 02:26:03;;;;;;;;;;;;;;;9.30;45.71;97774.34;4488429;31;35105;-67
2022/04/02 02:28:33;;;;;;;;;;;;;;;9.41;45.20;97768.78;4485565;31;32640;-66
2022/04/02 02:31:02;;;;;;;;;;;;;;;9.26;45.76;97768.50;4496621;31;34122;-66
2022/04/02 02:36:19;;;;;;;;;;;;;;;10.03;43.61;97766.00;4486391;31;34391;-64
2022/04/02 02:38:48;;;;;;;;;;;;;;;9.79;45.00;97761.34;4487879;31;33401;-64
2022/04/02 02:41:16;;;;;;;;;;;;;;;9.82;44.86;97760.19;4488815;31;34680;-65
2022/04/02 02:43:45;;;;;;;;;;;;;;;10.12;44.54;97758.84;4492540;31;34258;-65
2022/04/02 02:46:17;;;;;;;;;;;;;;;9.93;44.52;97747.41;4485349;31;33445;-65
2022/04/02 02:48:47;;;;;;;;;;;;;;;9.99;44.31;97748.59;4484565;31;33208;-66
2022/04/02 02:51:15;;;;;;;;;;;;;;;9.62;47.23;97756.91;4496226;31;35208;-65
2022/04/02 02:53:45;;;;;;;;;;;;;;;9.69;44.88;97765.94;4492273;31;33147;-66
2022/04/02 02:56:13;;;;;;;;;;;;;;;9.69;45.41;97769.44;4494765;31;34179;-63
2022/04/02 02:58:41;;;;;;;;;;;;;;;9.31;45.45;97776.88;4485697;31;34376;-64
2022/04/02 03:01:11;;;;;;;;;;;;;;;9.93;43.78;97782.13;4497011;31;33990;-64
2022/04/02 03:03:39;;;;;;;;;;;;;;;9.67;44.59;97779.47;4489980;31;32149;-65
2022/04/02 03:06:08;;;;;;;;;;;;;;;9.45;45.49;97774.66;4488134;31;34134;-65
2022/04/02 03:08:37;;;;;;;;;;;;;;;9.85;44.18;97774.06;4488630;31;33024;-65
2022/04/02 03:11:06;;;;;;;;;;;;;;;9.93;43.96;97774.13;4497174;31;34132;-65
2022/04/02 03:13:38;;;;;;;;;;;;;;;9.57;45.91;97774.25;4484989;31;33643;-65
2022/04/02 03:16:07;;;;;;;;;;;;;;;9.74;44.08;97777.84;4484619;31;35136;-65
2022/04/02 03:18:38;;;;;;;;;;;;;;;9.88;43.48;97784.44;4489530;31;32243;-66
2022/04/02 03:21:07;;;;;;;;;;;;;;;9.54;45.00;97779.88;4485250;31;33733;-65
2022/04/02 03:23:35;;;;;;;;;;;;;;;9.87;43.96;97788.13;4487406;31;32893;-66
2022/04/02 03:26:03;;;;;;;;;;;;;;;9.52;44.23;97789.88;4484639;31;34220;-66
2022/04/02 03:28:34;;;;;;;;;;;;;;;9.75;43.54;97798.22;4482495;31;33101;-66
2022/04/02 03:31:05;;;;;;;;;;;;;;;9.95;43.52;97792.66;4479971;31;33207;-64
2022/04/02 03:33:37;;;;;;;;;;;;;;;10.02;43.38;97794.56;4483927;31;34015;-64
2022/04/02 03:36:06;;;;;;;;;;;;;;;9.66;44.10;97791.16;4481302;31;34807;-66
2022/04/02 03:38:34;;;;;;;;;;;;;;;9.71;44.26;97798.69;4489728;31;33443;-65
2022/04/02 03:41:07;;;;;;;;;;;;;;;9.78;43.91;97794.41;4479472;32;32951;-64
2022/04/02 03:43:36;;;;;;;;;;;;;;;9.93;43.28;97798.16;4484101;31;34115;-64
2022/04/02 03:48:57;;;;;;;;;;;;;;;9.71;44.40;97796.88;4489076;31;33434;-64
2022/04/02 03:51:26;;;;;;;;;;;;;;;9.46;44.44;97803.03;4484467;31;32653;-63
2022/04/02 03:53:58;;;;;;;;;;;;;;;9.50;44.91;97794.56;4492403;31;34536;-65
2022/04/02 03:56:27;;;;;;;;;;;;;;;9.96;43.45;97797.84;4488748;31;33567;-65
2022/04/02 03:58:55;;;;;;;;;;;;;;;9.88;43.85;97796.97;4494676;31;33485;-64
2022/04/02 04:01:25;;;;;;;;;;;;;;;9.74;43.51;97790.37;4490060;31;33906;-65
2022/04/02 04:03:54;;;;;;;;;;;;;;;9.64;44.24;97789.63;4480817;32;34240;-65
2022/04/02 04:06:23;;;;;;;;;;;;;;;9.73;43.98;97783.37;4488752;31;34191;-65
2022/04/02 04:08:52;;;;;;;;;;;;;;;9.47;44.22;97776.19;4469438;32;33369;-65
2022/04/02 04:11:21;;;;;;;;;;;;;;;9.55;44.42;97784.22;4487279;31;33378;-65
2022/04/02 04:13:53;;;;;;;;;;;;;;;9.23;45.00;97782.13;4495421;31;35059;-66
2022/04/02 04:16:23;;;;;;;;;;;;;;;8.98;45.71;97782.91;4486144;31;33989;-65
2022/04/02 04:18:52;;;;;;;;;;;;;;;9.11;45.51;97794.03;4481715;31;32818;-67
2022/04/02 04:21:20;;;;;;;;;;;;;;;9.69;44.11;97798.00;4482857;31;33712;-64
2022/04/02 04:23:49;;;;;;;;;;;;;;;9.36;44.84;97800.44;4490314;31;34241;-66
2022/04/02 04:26:18;;;;;;;;;;;;;;;9.68;43.83;97804.34;4492548;31;33810;-64
2022/04/02 04:28:47;;;;;;;;;;;;;;;9.76;43.02;97794.56;4485504;31;33870;-66
2022/04/02 04:31:17;;;;;;;;;;;;;;;9.58;44.25;97796.44;4481508;31;33999;-66
2022/04/02 04:33:47;;;;;;;;;;;;;;;9.65;44.06;97793.97;4479789;31;34476;-64
2022/04/02 04:36:16;;;;;;;;;;;;;;;9.35;44.86;97798.78;4490045;31;34048;-66
2022/04/02 04:38:45;;;;;;;;;;;;;;;9.67;43.92;97803.53;4489888;31;34407;-64
2022/04/02 04:41:17;;;;;;;;;;;;;;;9.65;44.06;97810.00;4487133;31;34193;-67
2022/04/02 04:43:49;;;;;;;;;;;;;;;9.55;43.69;97813.59;4491531;31;35087;-67
2022/04/02 04:46:19;;;;;;;;;;;;;;;8.95;47.04;97804.56;4497485;31;34135;-66
2022/04/02 04:48:49;;;;;;;;;;;;;;;9.33;44.42;97816.75;4484886;31;31923;-64
2022/04/02 04:51:19;;;;;;;;;;;;;;;8.60;46.01;97812.38;4491139;31;33955;-65
2022/04/02 04:53:49;;;;;;;;;;;;;;;9.20;45.04;97806.47;4488433;31;34445;-65
2022/04/02 04:56:18;;;;;;;;;;;;;;;9.08;46.63;97810.34;4483207;31;34686;-66
2022/04/02 04:58:46;;;;;;;;;;;;;;;9.26;45.87;97810.38;4483380;31;33504;-64
2022/04/02 05:01:16;;;;;;;;;;;;;;;8.96;46.73;97809.75;4489860;31;34927;-65
2022/04/02 05:03:44;;;;;;;;;;;;;;;9.37;46.24;97812.78;4483760;31;34433;-64
2022/04/02 05:06:20;;;;;;;;;;;;;;;9.55;44.65;97808.25;4495964;31;33851;-65
2022/04/02 05:08:51;;;;;;;;;;;;;;;9.46;44.98;97814.53;4490855;31;34469;-64
2022/04/02 05:11:20;;;;;;;;;;;;;;;9.51;45.20;97819.44;4487358;31;35130;-64
2022/04/02 05:13:49;;;;;;;;;;;;;;;9.68;44.13;97810.53;4479621;31;34335;-66
2022/04/02 05:16:18;;;;;;;;;;;;;;;9.55;45.32;97818.94;4474071;31;34710;-65
2022/04/02 05:18:47;;;;;;;;;;;;;;;9.30;44.58;97823.25;4491474;31;33544;-67
2022/04/02 05:21:16;;;;;;;;;;;;;;;9.57;44.55;97827.66;4489465;31;34249;-67
2022/04/02 05:23:45;;;;;;;;;;;;;;;9.59;44.18;97838.16;4486903;31;34471;-64
2022/04/02 05:26:13;;;;;;;;;;;;;;;9.93;43.66;97842.78;4489902;31;32904;-65
2022/04/02 05:28:42;;;;;;;;;;;;;;;9.62;44.17;97839.69;4482609;31;34390;-64
2022/04/02 05:31:10;;;;;;;;;;;;;;;8.96;46.15;97841.78;4483614;31;33242;-66
2022/04/02 05:33:40;;;;;;;;;;;;;;;9.65;45.67;97845.56;4486756;31;34162;-65
2022/04/02 05:36:09;;;;;;;;;;;;;;;9.38;45.84;97845.69;4489288;31;33827;-66
2022/04/02 05:38:38;;;;;;;;;;;;;;;10.04;44.22;97840.66;4488807;31;33365;-70
2022/04/02 05:41:05;;;;;;;;;;;;;;;10.03;44.45;97844.31;4474632;32;33999;-64
2022/04/02 05:43:33;;;;;;;;;;;;;;;9.67;45.11;97853.44;4484472;31;32461;-64
2022/04/02 05:46:01;;;;;;;;;;;;;;;9.99;44.24;97842.97;4487893;31;35797;-64
2022/04/02 05:48:30;;;;;;;;;;;;;;;10.13;44.01;97848.75;4482081;31;33173;-63
2022/04/02 05:50:58;;;;;;;;;;;;;;;9.76;45.10;97847.16;4490636;31;34311;-67
2022/04/02 05:53:30;;;;;;;;;;;;;;;9.95;44.26;97843.44;4488132;31;34411;-64
2022/04/02 05:56:02;;;;;;;;;;;;;;;10.26;43.27;97851.84;4479922;32;33561;-64
2022/04/02 05:58:30;;;;;;;;;;;;;;;9.59;45.96;97854.19;4471268;32;33367;-65
2022/04/02 06:00:58;;;;;;;;;;;;;;;9.53;46.30;97858.34;4482753;31;34215;-65
2022/04/02 06:03:26;;;;;;;;;;;;;;;9.61;46.36;97860.22;4486677;31;33786;-64
2022/04/02 06:05:53;;;;;;;;;;;;;;;9.85;44.63;97856.88;4486842;31;33631;-64
2022/04/02 06:08:21;;;;;;;;;;;;;;;9.46;46.13;97843.06;4486760;31;34370;-64
2022/04/02 06:10:50;;;;;;;;;;;;;;;10.17;44.45;97844.75;4486577;31;34581;-64
2022/04/02 06:13:18;;;;;;;;;;;;;;;9.43;46.04;97849.56;4487558;31;33926;-64
2022/04/02 06:15:47;;;;;;;;;;;;;;;9.97;44.48;97860.16;4482087;31;33944;-64
2022/04/02 06:18:18;;;;;;;;;;;;;;;9.51;45.81;97852.31;4487142;31;34147;-64
2022/04/02 06:20:48;;;;;;;;;;;;;;;10.06;45.31;97864.56;4488036;31;34325;-64
2022/04/02 06:23:16;;;;;;;;;;;;;;;10.34;44.87;97869.78;4486780;31;35002;-64
2022/04/02 06:25:45;;;;;;;;;;;;;;;9.84;45.18;97879.28;4487988;31;34218;-65
2022/04/02 06:28:13;;;;;;;;;;;;;;;10.14;43.67;97869.13;4486765;31;34265;-64
2022/04/02 06:30:42;;;;;;;;;;;;;;;9.89;45.24;97868.97;4486646;31;34019;-64
2022/04/02 06:33:10;;;;;;;;;;;;;;;10.42;43.52;97867.13;4487705;31;33021;-64
2022/04/02 06:35:39;;;;;;;;;;;;;;;10.38;44.22;97873.81;4490417;31;35314;-64
2022/04/02 06:38:07;;;;;;;;;;;;;;;9.59;46.37;97877.41;4488634;31;33434;-64
2022/04/02 06:40:35;;;;;;;;;;;;;;;9.45;45.53;97868.94;4480172;32;34488;-65
2022/04/02 06:43:04;;;;;;;;;;;;;;;10.06;44.50;97880.59;4487076;31;34488;-64
2022/04/02 06:45:33;;;;;;;;;;;;;;;10.17;44.97;97872.31;4483178;31;35129;-65
2022/04/02 06:48:02;;;;;;;;;;;;;;;9.85;45.58;97872.09;4484738;31;31949;-64
2022/04/02 06:50:30;;;;;;;;;;;;;;;10.04;45.06;97875.41;4486993;31;32984;-64
2022/04/02 06:52:58;;;;;;;;;;;;;;;9.98;44.52;97886.75;4489773;31;33850;-64
2022/04/02 06:55:32;;;;;;;;;;;;;;;9.94;45.38;97887.19;4489032;31;33832;-67
2022/04/02 06:58:01;;;;;;;;;;;;;;;9.99;44.51;97898.28;4489215;31;33403;-63
2022/04/02 07:00:29;;;;;;;;;;;;;;;9.56;46.17;97882.03;4488585;31;32909;-63
2022/04/02 07:02:57;;;;;;;;;;;;;;;9.07;47.19;97884.25;4483720;31;34276;-65
2022/04/02 07:05:25;;;;;;;;;;;;;;;8.97;48.50;97880.81;4480233;31;33020;-64
2022/04/02 07:07:54;;;;;;;;;;;;;;;8.66;48.56;97885.59;4489795;31;34515;-64
2022/04/02 07:10:22;;;;;;;;;;;;;;;9.43;46.86;97886.09;4491581;31;35198;-64
2022/04/02 07:12:50;;;;;;;;;;;;;;;9.63;48.06;97881.44;4479999;32;35243;-65
2022/04/02 07:15:19;;;;;;;;;;;;;;;10.37;45.37;97888.16;4484084;31;34765;-64
2022/04/02 07:17:47;;;;;;;;;;;;;;;9.50;45.52;97888.03;4482679;31;32991;-65
2022/04/02 07:20:18;;;;;;;;;;;;;;;10.13;45.45;97899.53;4479368;32;34185;-68
2022/04/02 07:22:45;;;;;;;;;;;;;;;9.99;47.46;97907.13;4486462;31;32815;-68
2022/04/02 07:25:14;;;;;;;;;;;;;;;10.21;46.63;97896.91;4477285;31;34917;-65
2022/04/02 07:27:43;;;;;;;;;;;;;;;10.63;45.07;97906.88;4474886;31;33823;-64
2022/04/02 07:30:13;;;;;;;;;;;;;;;9.45;47.01;97903.66;4468268;31;33940;-64
2022/04/02 07:32:45;;;;;;;;;;;;;;;9.89;44.90;97906.38;4470961;31;34367;-65
2022/04/02 07:35:16;;;;;;;;;;;;;;;9.94;45.43;97903.22;4494313;31;34039;-64
2022/04/02 07:37:53;;;;;;;;;;;;;;;10.19;45.29;97909.59;4486324;31;34272;-65
2022/04/02 07:40:30;;;;;;;;;;;;;;;10.31;44.55;97904.87;4489016;31;33262;-65
2022/04/02 07:43:23;;;;;;;;;;;;;;;10.60;44.71;97901.84;4475102;32;34272;-65
2022/04/02 07:46:00;;;;;;;;;;;;;;;10.43;45.24;97909.78;4473764;32;34979;-66
2022/04/02 07:48:32;;;;;;;;;;;;;;;10.46;45.65;97912.16;4490346;31;33164;-65
2022/04/02 07:51:06;;;;;;;;;;;;;;;10.54;44.22;97916.69;4478401;31;34018;-65
2022/04/02 07:53:42;;;;;;;;;;;;;;;9.63;46.91;97911.69;4492140;31;33527;-65
2022/04/02 07:56:31;;;;;;;;;;;;;;;10.26;45.12;97918.69;4486377;31;34316;-65
2022/04/02 07:59:09;;;;;;;;;;;;;;;9.94;45.94;97917.44;4486016;31;32945;-66
2022/04/02 08:01:40;;;;;;;;;;;;;;;10.94;43.24;97923.22;4476818;31;34205;-66
2022/04/02 08:04:12;;;;;;;;;;;;;;;10.87;43.74;97928.37;4487237;31;34401;-65
2022/04/02 08:06:46;;;;;;;;;;;;;;;10.06;45.72;97927.87;4486880;31;32654;-65
2022/04/02 08:09:17;;;;;;;;;;;;;;;9.66;46.78;97921.19;4473791;31;33472;-67
2022/04/02 08:11:51;;;;;;;;;;;;;;;9.63;46.70;97921.50;4489852;31;33960;-65
2022/04/02 08:14:22;;;;;;;;;;;;;;;9.62;46.92;97925.16;4470886;31;33568;-65
2022/04/02 08:16:55;;;;;;;;;;;;;;;10.31;45.72;97926.25;4477114;31;35295;-65
2022/04/02 08:19:29;;;;;;;;;;;;;;;9.68;46.70;97930.75;4488873;31;32491;-68
2022/04/02 08:22:01;;;;;;;;;;;;;;;9.19;46.83;97929.44;4483721;32;33409;-64
2022/04/02 08:24:34;;;;;;;;;;;;;;;9.51;47.83;97929.75;4489500;31;34428;-67
2022/04/02 08:27:11;;;;;;;;;;;;;;;9.46;46.75;97924.03;4490236;31;32674;-65
2022/04/02 08:30:02;;;;;;;;;;;;;;;9.80;47.80;97934.03;4474298;31;33584;-64
2022/04/02 08:32:36;;;;;;;;;;;;;;;9.82;47.01;97942.72;4486263;31;33970;-64
2022/04/02 08:35:08;;;;;;;;;;;;;;;10.15;45.53;97946.50;4484147;31;34457;-65
2022/04/02 08:37:58;;;;;;;;;;;;;;;9.68;48.24;97945.94;4496707;31;34971;-65
2022/04/02 08:40:36;;;;;;;;;;;;;;;9.63;48.34;97946.41;4476317;31;31862;-64
2022/04/02 08:43:22;;;;;;;;;;;;;;;9.84;46.29;97955.94;4493434;31;32809;-67
2022/04/02 08:46:03;;;;;;;;;;;;;;;10.00;46.55;97954.22;4487512;31;33465;-65
2022/04/02 08:48:37;;;;;;;;;;;;;;;10.24;46.67;97950.91;4474175;31;34049;-65
2022/04/02 08:51:16;;;;;;;;;;;;;;;10.78;44.87;97952.59;4485382;31;34345;-67
2022/04/02 08:53:58;;;;;;;;;;;;;;;10.76;44.76;97955.44;4489390;31;33796;-64
2022/04/02 08:56:30;;;;;;;;;;;;;;;10.93;44.36;97959.84;4485710;31;34456;-65
2022/04/02 08:59:11;;;;;;;;;;;;;;;10.91;44.29;97959.19;4486310;31;34265;-67
2022/04/02 09:01:49;;;;;;;;;;;;;;;11.16;44.88;97964.63;4485696;31;33187;-66
2022/04/02 09:04:27;;;;;;;;;;;;;;;10.24;45.88;97960.75;4478927;31;35106;-65
2022/04/02 09:07:09;;;;;;;;;;;;;;;11.00;46.20;97969.94;4487570;31;34460;-65
2022/04/02 09:10:03;;;;;;;;;;;;;;;11.04;44.66;97965.91;4486619;31;33765;-65
2022/04/02 09:12:48;;;;;;;;;;;;;;;11.16;44.22;97972.66;4485764;31;34105;-65
2022/04/02 09:15:41;;;;;;;;;;;;;;;11.10;44.15;97974.16;4476670;31;35804;-67
2022/04/02 09:18:36;;;;;;;;;;;;;;;11.13;42.77;97983.69;4487588;31;34072;-65
2022/04/02 09:21:28;;;;;;;;;;;;;;;11.05;42.39;97987.19;4491222;31;34315;-65
2022/04/02 09:24:09;;;;;;;;;;;;;;;10.54;45.30;97985.41;4491580;31;32125;-64
2022/04/02 09:26:53;;;;;;;;;;;;;;;11.40;42.38;97980.81;4477721;31;33629;-65
2022/04/02 09:29:40;;;;;;;;;;;;;;;11.16;42.75;97988.75;4471889;31;33881;-64
2022/04/02 09:32:24;;;;;;;;;;;;;;;11.47;43.43;97997.06;4472210;31;33983;-65
2022/04/02 09:35:02;;;;;;;;;;;;;;;11.28;44.29;97995.50;4487895;31;33081;-67
2022/04/02 09:37:43;;;;;;;;;;;;;;;10.61;44.51;98000.66;4486251;31;33484;-67
2022/04/02 09:40:14;;;;;;;;;;;;;;;11.03;43.79;97996.37;4485093;31;33499;-64
2022/04/02 09:42:51;;;;;;;;;;;;;;;11.40;43.12;97993.38;4483212;32;33896;-65
2022/04/02 09:45:30;;;;;;;;;;;;;;;11.46;42.97;98000.75;4489399;31;33308;-65
2022/04/02 09:48:02;;;;;;;;;;;;;;;11.45;43.91;98011.63;4472206;32;35269;-65
2022/04/02 09:50:32;;;;;;;;;;;;;;;11.58;42.96;98004.78;4487327;31;34992;-66
2022/04/02 09:53:14;;;;;;;;;;;;;;;11.41;43.08;98003.06;4489020;31;32814;-65
2022/04/02 09:56:05;;;;;;;;;;;;;;;11.96;42.28;98007.91;4486783;31;32961;-64
2022/04/02 09:58:37;;;;;;;;;;;;;;;11.32;43.06;98020.94;4483008;31;33171;-65
2022/04/02 10:01:27;;;;;;;;;;;;;;;11.45;42.86;98022.31;4495428;31;34419;-65
2022/04/02 10:04:00;;;;;;;;;;;;;;;11.36;42.93;98022.31;4481234;31;32887;-66
2022/04/02 10:06:36;;;;;;;;;;;;;;;11.86;41.94;98020.63;4486916;31;33409;-65
2022/04/02 10:09:09;;;;;;;;;;;;;;;11.20;42.72;98024.91;4485655;31;35015;-64
2022/04/02 10:12:02;;;;;;;;;;;;;;;11.07;43.02;98025.34;4487970;31;33064;-64
2022/04/02 10:14:34;;;;;;;;;;;;;;;11.51;41.75;98013.66;4487697;31;34028;-64
2022/04/02 10:17:07;;;;;;;;;;;;;;;11.31;42.66;98029.97;4491248;31;32017;-64
2022/04/02 10:19:38;;;;;;;;;;;;;;;10.85;44.27;98028.56;4487876;31;33966;-64
2022/04/02 10:22:10;;;;;;;;;;;;;;;11.23;43.98;98026.41;4486182;31;35343;-64
2022/04/02 10:24:41;;;;;;;;;;;;;;;11.51;43.58;98032.41;4486867;31;33827;-67
2022/04/02 10:27:12;;;;;;;;;;;;;;;11.27;43.59;98030.44;4486073;31;34387;-67
2022/04/02 10:30:00;;;;;;;;;;;;;;;11.11;42.88;98026.72;4474080;31;32382;-67
2022/04/02 10:32:47;;;;;;;;;;;;;;;11.33;43.50;98028.00;4482761;31;36014;-65
2022/04/02 10:35:18;;;;;;;;;;;;;;;10.72;43.23;98023.62;4483277;31;34207;-63
2022/04/02 10:37:58;;;;;;;;;;;;;;;10.69;43.60;98023.97;4492527;31;33002;-63
2022/04/02 10:40:29;;;;;;;;;;;;;;;11.48;42.46;98020.16;4482444;31;33948;-63
2022/04/02 10:43:07;;;;;;;;;;;;;;;11.59;42.29;98017.19;4481974;31;35414;-65
2022/04/02 10:45:41;;;;;;;;;;;;;;;11.46;41.62;98030.22;4491222;31;34790;-63
2022/04/02 10:48:24;;;;;;;;;;;;;;;11.26;42.94;98028.78;4485773;31;33803;-63
2022/04/02 10:50:58;;;;;;;;;;;;;;;11.43;41.84;98030.53;4471368;31;34249;-64
2022/04/02 10:53:33;;;;;;;;;;;;;;;11.31;42.79;98034.50;4486409;31;33181;-66
2022/04/02 10:56:07;;;;;;;;;;;;;;;11.00;43.27;98028.81;4476653;31;35704;-63
2022/04/02 10:58:41;;;;;;;;;;;;;;;10.85;43.31;98036.59;4469056;32;32719;-67
2022/04/02 11:01:20;;;;;;;;;;;;;;;10.40;45.64;98046.50;4480623;31;34224;-68
2022/04/02 11:03:54;;;;;;;;;;;;;;;10.56;45.49;98051.16;4473421;31;33336;-63
2022/04/02 11:06:41;;;;;;;;;;;;;;;11.33;42.79;98046.75;4486580;31;34052;-64
2022/04/02 11:09:22;;;;;;;;;;;;;;;10.64;44.45;98050.34;4490250;31;32446;-64
2022/04/02 11:11:51;;;;;;;;;;;;;;;10.33;46.40;98060.62;4474616;31;32680;-65
2022/04/02 11:14:20;;;;;;;;;;;;;;;11.19;43.65;98058.03;4478109;32;35027;-64
2022/04/02 11:16:49;;;;;;;;;;;;;;;10.90;44.63;98061.06;4487193;31;33416;-66
2022/04/02 11:22:13;;;;;;;;;;;;;;;11.05;45.80;98051.44;4486881;31;34960;-64
2022/04/02 11:24:50;;;;;;;;;;;;;;;10.86;43.67;98054.34;4472003;31;34318;-63
2022/04/02 11:27:19;;;;;;;;;;;;;;;11.51;42.49;98057.34;4475904;31;33099;-64
2022/04/02 11:29:51;;;;;;;;;;;;;;;11.97;42.90;98059.69;4476890;31;34242;-64
2022/04/02 11:32:25;;;;;;;;;;;;;;;11.73;42.34;98060.44;4477980;31;34955;-65
2022/04/02 11:34:55;;;;;;;;;;;;;;;11.96;41.89;98058.00;4482678;31;34735;-64
2022/04/02 11:37:29;;;;;;;;;;;;;;;11.78;42.52;98061.62;4468695;31;35098;-65
2022/04/02 11:40:03;;;;;;;;;;;;;;;12.20;42.69;98059.88;4483162;31;32466;-64
2022/04/02 11:42:35;;;;;;;;;;;;;;;12.42;41.87;98058.41;4483031;31;34027;-64
2022/04/02 11:45:11;;;;;;;;;;;;;;;13.11;40.08;98061.53;4472610;31;33220;-69
2022/04/02 11:47:39;;;;;;;;;;;;;;;13.12;39.86;98061.34;4487550;31;34370;-65
2022/04/02 11:50:08;;;;;;;;;;;;;;;12.75;40.79;98064.59;4467348;31;34450;-68
2022/04/02 11:52:50;;;;;;;;;;;;;;;13.01;39.67;98059.84;4492065;31;34184;-64
2022/04/02 11:55:19;;;;;;;;;;;;;;;13.51;38.35;98057.87;4466397;31;33548;-64
2022/04/02 11:57:57;;;;;;;;;;;;;;;11.90;41.79;98067.53;4483221;31;35110;-67
2022/04/02 12:00:35;;;;;;;;;;;;;;;12.35;41.24;98064.44;4482699;31;33531;-64
2022/04/02 12:03:05;;;;;;;;;;;;;;;12.69;40.32;98058.06;4485556;31;33677;-65
2022/04/02 12:05:37;;;;;;;;;;;;;;;13.14;39.54;98069.22;4471634;31;34173;-65
2022/04/02 12:08:06;;;;;;;;;;;;;;;12.92;41.01;98063.56;4486222;31;35263;-65
2022/04/02 12:10:46;;;;;;;;;;;;;;;12.93;40.83;98061.72;4483085;31;32864;-66
2022/04/02 12:13:14;;;;;;;;;;;;;;;12.91;40.94;98064.59;4495072;31;34246;-65
2022/04/02 12:15:49;;;;;;;;;;;;;;;13.26;40.87;98057.97;4482142;31;35338;-64
2022/04/02 12:18:18;;;;;;;;;;;;;;;12.86;41.96;98064.25;4482435;31;34158;-66
2022/04/02 12:20:45;;;;;;;;;;;;;;;12.86;41.86;98071.47;4483914;31;33263;-64
2022/04/02 12:23:14;;;;;;;;;;;;;;;13.56;40.46;98066.25;4473685;31;34105;-66
2022/04/02 12:25:46;;;;;;;;;;;;;;;13.27;40.42;98054.28;4483976;31;36368;-64
2022/04/02 12:28:15;;;;;;;;;;;;;;;13.77;40.15;98062.97;4484364;31;32846;-64
2022/04/02 12:30:48;;;;;;;;;;;;;;;13.66;40.20;98066.88;4480152;31;33645;-63
2022/04/02 12:33:20;;;;;;;;;;;;;;;13.96;39.51;98064.37;4479122;31;34159;-64
2022/04/02 12:35:55;;;;;;;;;;;;;;;14.35;39.22;98068.81;4483416;31;31601;-64
2022/04/02 12:38:25;;;;;;;;;;;;;;;14.25;38.84;98066.38;4481143;32;34143;-64
2022/04/02 12:40:56;;;;;;;;;;;;;;;13.87;39.83;98076.22;4486790;31;33462;-64
2022/04/02 12:43:27;;;;;;;;;;;;;;;13.69;40.68;98079.97;4477620;31;35245;-64
2022/04/02 12:45:56;;;;;;;;;;;;;;;13.90;39.24;98079.38;4486780;31;35115;-64
2022/04/02 12:48:25;;;;;;;;;;;;;;;13.80;40.19;98078.75;4479524;31;34191;-65
2022/04/02 12:50:56;;;;;;;;;;;;;;;13.57;40.65;98080.53;4473784;31;32371;-67
2022/04/02 12:53:31;;;;;;;;;;;;;;;12.93;41.56;98073.28;4485198;31;33001;-65
2022/04/02 12:56:06;;;;;;;;;;;;;;;14.10;39.45;98070.88;4490956;31;35709;-65
2022/04/02 12:58:58;;;;;;;;;;;;;;;14.56;39.14;98076.28;4487213;31;33946;-67
2022/04/02 13:01:28;;;;;;;;;;;;;;;14.27;38.60;98076.97;4483604;31;33089;-65
2022/04/02 13:03:57;;;;;;;;;;;;;;;14.00;40.09;98073.78;4489331;31;34403;-64
2022/04/02 13:06:28;;;;;;;;;;;;;;;14.36;39.47;98076.72;4483943;31;34012;-64
2022/04/02 13:08:56;;;;;;;;;;;;;;;13.29;40.73;98078.31;4483430;31;34244;-66
2022/04/02 13:11:30;;;;;;;;;;;;;;;13.25;41.63;98076.94;4484609;31;31475;-64
2022/04/02 13:14:02;;;;;;;;;;;;;;;13.85;40.32;98083.59;4490290;31;35271;-64
2022/04/02 13:16:37;;;;;;;;;;;;;;;14.71;38.82;98077.16;4467324;31;34205;-64
2022/04/02 13:22:03;;;;;;;;;;;;;;;14.00;40.47;98084.53;4489929;31;32428;-67
2022/04/02 13:24:34;;;;;;;;;;;;;;;14.42;39.80;98085.94;4486616;31;33643;-64
2022/04/02 13:27:17;;;;;;;;;;;;;;;13.59;41.99;98083.91;4469795;32;33398;-66
2022/04/02 13:29:51;;;;;;;;;;;;;;;13.90;41.21;98084.75;4488252;31;35129;-64